Terminal Aerodrome Forecast
Issued by NWS Sioux Falls, SD

Home | Current Version | Previous Version | Text Only | Print | Product List | Glossary Off
Versions: 1 2 3 4 5 6 7 8 9 10 11 12 13 14 15 16 17 18 19 20 21 22 23

000
FTUS43 KFSD 022320
TAFFSD
TAF
KFSD 022320Z 0300/0324 33004KT P6SM OVC025
     FM030400 VRB03KT P6SM OVC025
     FM030900 18003KT P6SM OVC012
     FM031400 17008KT P6SM SCT012 BKN080
     FM032000 16008KT P6SM OVC025=

USA.gov is the U.S. government's official web portal to all federal, state and local government web resources and services.